aviador You're here:

CWHN Decoded Metar

JIMMY LAKE in SK, CANADA
Report Time2017-08-24 02:00:00
UTC Time2017-08-24 03:06:10
Flight Rules vfr VFR
Wind120° at 08 kt
W.Rank120° ranks 25
Current wind is above 120° avg. (5.8)
Visibility9999 m
Phenomena:N/A
Clouds:N/A
Expected CloudBase > 2,400 ft AGL from Temp-Dew spread
CeilingNone
Temp19°C (ISA +8)
Dew Point13°C (68% RH)
AAT17.0°C
QNH1014 hPa
Density Alt3,212 ft
Elevation2,087 ft
Report Wrong Elevation
Raw Report
METAR CWHN 240200Z AUTO 12008KT 9SM CLR 19/13 A2993 RMK SLP146=

Extra information for CWHN:More info

Metar Taf Metar & Taf Last 4 Metars F.Rules Stats Wind Profile Meteogram Temp Stats Airport Information Weather charts Add Link Nearby VenuesMetar ALERT Operation Metar Decoded Social comments